sensor_id;sensor_type;location;lat;lon;timestamp;temperature;humidity
18611;DHT22;9435;52.122;5.502;2022-08-01T00:00:50;19.20;99.90
18611;DHT22;9435;52.122;5.502;2022-08-01T00:03:17;19.20;99.90
18611;DHT22;9435;52.122;5.502;2022-08-01T00:05:44;19.10;99.90
18611;DHT22;9435;52.122;5.502;2022-08-01T00:08:12;19.10;99.90
18611;DHT22;9435;52.122;5.502;2022-08-01T00:10:39;19.10;99.90
18611;DHT22;9435;52.122;5.502;2022-08-01T00:13:06;19.10;99.90
18611;DHT22;9435;52.122;5.502;2022-08-01T00:15:33;19.10;99.90
18611;DHT22;9435;52.122;5.502;2022-08-01T00:18:01;19.10;99.90
18611;DHT22;9435;52.122;5.502;2022-08-01T00:20:28;19.10;99.90
18611;DHT22;9435;52.122;5.502;2022-08-01T00:22:55;19.10;99.90
18611;DHT22;9435;52.122;5.502;2022-08-01T00:25:22;19.00;99.90
18611;DHT22;9435;52.122;5.502;2022-08-01T00:27:49;19.00;99.90
18611;DHT22;9435;52.122;5.502;2022-08-01T00:30:17;19.00;99.90
18611;DHT22;9435;52.122;5.502;2022-08-01T00:32:44;19.00;99.90
18611;DHT22;9435;52.122;5.502;2022-08-01T00:35:12;19.00;99.90
18611;DHT22;9435;52.122;5.502;2022-08-01T00:37:39;18.90;99.90
18611;DHT22;9435;52.122;5.502;2022-08-01T00:40:07;19.00;99.90
18611;DHT22;9435;52.122;5.502;2022-08-01T00:42:34;18.90;99.90
18611;DHT22;9435;52.122;5.502;2022-08-01T00:45:01;18.90;99.90
18611;DHT22;9435;52.122;5.502;2022-08-01T00:47:28;18.90;99.90
18611;DHT22;9435;52.122;5.502;2022-08-01T00:49:55;18.90;99.90
18611;DHT22;9435;52.122;5.502;2022-08-01T00:52:25;18.90;99.90
18611;DHT22;9435;52.122;5.502;2022-08-01T00:54:52;18.90;99.90
18611;DHT22;9435;52.122;5.502;2022-08-01T00:57:19;18.90;99.90
18611;DHT22;9435;52.122;5.502;2022-08-01T00:59:46;18.90;99.90
18611;DHT22;9435;52.122;5.502;2022-08-01T01:02:13;18.90;99.90
18611;DHT22;9435;52.122;5.502;2022-08-01T01:04:40;18.90;99.90
18611;DHT22;9435;52.122;5.502;2022-08-01T01:07:12;18.90;99.90
18611;DHT22;9435;52.122;5.502;2022-08-01T01:09:46;18.90;99.90
18611;DHT22;9435;52.122;5.502;2022-08-01T01:12:22;18.90;99.90
18611;DHT22;9435;52.122;5.502;2022-08-01T01:14:57;18.80;99.90
18611;DHT22;9435;52.122;5.502;2022-08-01T01:17:31;18.80;99.90
18611;DHT22;9435;52.122;5.502;2022-08-01T01:20:01;18.80;99.90
18611;DHT22;9435;52.122;5.502;2022-08-01T01:22:50;18.80;99.90
18611;DHT22;9435;52.122;5.502;2022-08-01T01:25:39;18.80;99.90
18611;DHT22;9435;52.122;5.502;2022-08-01T01:28:12;18.80;99.90
18611;DHT22;9435;52.122;5.502;2022-08-01T01:30:45;18.80;99.90
18611;DHT22;9435;52.122;5.502;2022-08-01T01:33:14;18.80;99.90
18611;DHT22;9435;52.122;5.502;2022-08-01T01:35:46;18.80;99.90
18611;DHT22;9435;52.122;5.502;2022-08-01T01:38:18;18.80;99.90
18611;DHT22;9435;52.122;5.502;2022-08-01T01:40:47;18.80;99.90
18611;DHT22;9435;52.122;5.502;2022-08-01T01:43:15;18.80;99.90
18611;DHT22;9435;52.122;5.502;2022-08-01T01:45:45;18.80;99.90
18611;DHT22;9435;52.122;5.502;2022-08-01T01:48:15;18.80;99.90
18611;DHT22;9435;52.122;5.502;2022-08-01T01:50:45;18.80;99.90
18611;DHT22;9435;52.122;5.502;2022-08-01T01:53:14;18.80;99.90
18611;DHT22;9435;52.122;5.502;2022-08-01T01:55:45;18.70;99.90
18611;DHT22;9435;52.122;5.502;2022-08-01T01:58:14;18.70;99.90
18611;DHT22;9435;52.122;5.502;2022-08-01T02:00:42;18.70;99.90
18611;DHT22;9435;52.122;5.502;2022-08-01T02:03:13;18.70;99.90
18611;DHT22;9435;52.122;5.502;2022-08-01T02:05:41;18.80;99.90
18611;DHT22;9435;52.122;5.502;2022-08-01T02:08:10;18.80;99.90
18611;DHT22;9435;52.122;5.502;2022-08-01T02:10:39;18.80;99.90
18611;DHT22;9435;52.122;5.502;2022-08-01T02:13:07;18.80;99.90
18611;DHT22;9435;52.122;5.502;2022-08-01T02:15:36;18.80;99.90
18611;DHT22;9435;52.122;5.502;2022-08-01T02:18:06;18.90;99.90
18611;DHT22;9435;52.122;5.502;2022-08-01T02:20:37;18.90;99.90
18611;DHT22;9435;52.122;5.502;2022-08-01T02:23:08;18.90;99.90
18611;DHT22;9435;52.122;5.502;2022-08-01T02:25:42;18.90;99.90
18611;DHT22;9435;52.122;5.502;2022-08-01T02:28:15;18.80;99.90
18611;DHT22;9435;52.122;5.502;2022-08-01T02:30:47;18.90;99.90
18611;DHT22;9435;52.122;5.502;2022-08-01T02:33:17;18.90;99.90
18611;DHT22;9435;52.122;5.502;2022-08-01T02:35:48;18.90;99.90
18611;DHT22;9435;52.122;5.502;2022-08-01T02:38:17;18.90;99.90
18611;DHT22;9435;52.122;5.502;2022-08-01T02:40:47;18.80;99.90
18611;DHT22;9435;52.122;5.502;2022-08-01T02:43:20;18.90;99.90
18611;DHT22;9435;52.122;5.502;2022-08-01T02:45:52;18.90;99.90
18611;DHT22;9435;52.122;5.502;2022-08-01T02:48:21;18.90;99.90
18611;DHT22;9435;52.122;5.502;2022-08-01T02:50:54;18.80;99.90
18611;DHT22;9435;52.122;5.502;2022-08-01T02:53:24;18.80;99.90
18611;DHT22;9435;52.122;5.502;2022-08-01T02:55:53;18.80;99.90
18611;DHT22;9435;52.122;5.502;2022-08-01T02:58:21;18.80;99.90
18611;DHT22;9435;52.122;5.502;2022-08-01T03:00:50;18.80;99.90
18611;DHT22;9435;52.122;5.502;2022-08-01T03:03:17;18.80;99.90
18611;DHT22;9435;52.122;5.502;2022-08-01T03:05:45;18.80;99.90
18611;DHT22;9435;52.122;5.502;2022-08-01T03:08:16;18.80;99.90
18611;DHT22;9435;52.122;5.502;2022-08-01T03:10:45;18.80;99.90
18611;DHT22;9435;52.122;5.502;2022-08-01T03:13:15;18.80;99.90
18611;DHT22;9435;52.122;5.502;2022-08-01T03:15:44;18.80;99.90
18611;DHT22;9435;52.122;5.502;2022-08-01T03:18:12;18.80;99.90
18611;DHT22;9435;52.122;5.502;2022-08-01T03:20:42;18.80;99.90
18611;DHT22;9435;52.122;5.502;2022-08-01T03:23:11;18.80;99.90
18611;DHT22;9435;52.122;5.502;2022-08-01T03:25:41;18.80;99.90
18611;DHT22;9435;52.122;5.502;2022-08-01T03:28:13;18.70;99.90
18611;DHT22;9435;52.122;5.502;2022-08-01T03:30:41;18.80;99.90
18611;DHT22;9435;52.122;5.502;2022-08-01T03:33:09;18.80;99.90
18611;DHT22;9435;52.122;5.502;2022-08-01T03:35:39;18.70;99.90
18611;DHT22;9435;52.122;5.502;2022-08-01T03:38:10;18.80;99.90
18611;DHT22;9435;52.122;5.502;2022-08-01T03:40:43;18.70;99.90
18611;DHT22;9435;52.122;5.502;2022-08-01T03:43:13;18.70;99.90
18611;DHT22;9435;52.122;5.502;2022-08-01T03:45:48;18.70;99.90
18611;DHT22;9435;52.122;5.502;2022-08-01T03:48:17;18.80;99.90
18611;DHT22;9435;52.122;5.502;2022-08-01T03:50:47;18.80;99.90
18611;DHT22;9435;52.122;5.502;2022-08-01T03:53:16;18.70;99.90
18611;DHT22;9435;52.122;5.502;2022-08-01T03:55:48;18.80;99.90
18611;DHT22;9435;52.122;5.502;2022-08-01T03:58:16;18.80;99.90
18611;DHT22;9435;52.122;5.502;2022-08-01T04:00:44;18.70;99.90
18611;DHT22;9435;52.122;5.502;2022-08-01T04:03:12;18.70;99.90
18611;DHT22;9435;52.122;5.502;2022-08-01T04:05:41;18.70;99.90
18611;DHT22;9435;52.122;5.502;2022-08-01T04:08:08;18.70;99.90
18611;DHT22;9435;52.122;5.502;2022-08-01T04:10:35;18.70;99.90
18611;DHT22;9435;52.122;5.502;2022-08-01T04:13:04;18.70;99.90
18611;DHT22;9435;52.122;5.502;2022-08-01T04:15:31;18.60;99.90
18611;DHT22;9435;52.122;5.502;2022-08-01T04:17:58;18.60;99.90
18611;DHT22;9435;52.122;5.502;2022-08-01T04:20:25;18.60;99.90
18611;DHT22;9435;52.122;5.502;2022-08-01T04:22:52;18.60;99.90
18611;DHT22;9435;52.122;5.502;2022-08-01T04:25:25;18.60;99.90
18611;DHT22;9435;52.122;5.502;2022-08-01T04:27:53;18.60;99.90
18611;DHT22;9435;52.122;5.502;2022-08-01T04:30:25;18.60;99.90
18611;DHT22;9435;52.122;5.502;2022-08-01T04:32:55;18.60;99.90
18611;DHT22;9435;52.122;5.502;2022-08-01T04:35:25;18.60;99.90
18611;DHT22;9435;52.122;5.502;2022-08-01T04:37:53;18.60;99.90
18611;DHT22;9435;52.122;5.502;2022-08-01T04:40:21;18.60;99.90
18611;DHT22;9435;52.122;5.502;2022-08-01T04:42:49;18.60;99.90
18611;DHT22;9435;52.122;5.502;2022-08-01T04:45:16;18.60;99.90
18611;DHT22;9435;52.122;5.502;2022-08-01T04:47:45;18.50;99.90
18611;DHT22;9435;52.122;5.502;2022-08-01T04:50:13;18.50;99.90
18611;DHT22;9435;52.122;5.502;2022-08-01T04:52:40;18.40;99.90
18611;DHT22;9435;52.122;5.502;2022-08-01T04:55:09;18.40;99.90
18611;DHT22;9435;52.122;5.502;2022-08-01T04:57:37;18.20;99.90
18611;DHT22;9435;52.122;5.502;2022-08-01T05:00:06;18.20;99.90
18611;DHT22;9435;52.122;5.502;2022-08-01T05:02:33;18.20;99.90
18611;DHT22;9435;52.122;5.502;2022-08-01T05:05:03;18.10;99.90
18611;DHT22;9435;52.122;5.502;2022-08-01T05:07:31;18.10;99.90
18611;DHT22;9435;52.122;5.502;2022-08-01T05:09:58;18.10;99.90
18611;DHT22;9435;52.122;5.502;2022-08-01T05:12:26;18.00;99.90
18611;DHT22;9435;52.122;5.502;2022-08-01T05:14:53;18.00;99.90
18611;DHT22;9435;52.122;5.502;2022-08-01T05:17:21;18.00;99.90
18611;DHT22;9435;52.122;5.502;2022-08-01T05:19:48;18.00;99.90
18611;DHT22;9435;52.122;5.502;2022-08-01T05:22:16;18.00;99.90
18611;DHT22;9435;52.122;5.502;2022-08-01T05:24:43;17.90;99.90
18611;DHT22;9435;52.122;5.502;2022-08-01T05:27:11;17.90;99.90
18611;DHT22;9435;52.122;5.502;2022-08-01T05:29:39;17.80;99.90
18611;DHT22;9435;52.122;5.502;2022-08-01T05:32:06;17.80;99.90
18611;DHT22;9435;52.122;5.502;2022-08-01T05:34:33;17.80;99.90
18611;DHT22;9435;52.122;5.502;2022-08-01T05:37:00;17.80;99.90
18611;DHT22;9435;52.122;5.502;2022-08-01T05:39:29;17.80;99.90
18611;DHT22;9435;52.122;5.502;2022-08-01T05:41:56;17.70;99.90
18611;DHT22;9435;52.122;5.502;2022-08-01T05:44:23;17.80;99.90
18611;DHT22;9435;52.122;5.502;2022-08-01T05:46:51;17.80;99.90
18611;DHT22;9435;52.122;5.502;2022-08-01T05:49:18;17.70;99.90
18611;DHT22;9435;52.122;5.502;2022-08-01T05:51:45;17.80;99.90
18611;DHT22;9435;52.122;5.502;2022-08-01T05:54:12;17.90;99.90
18611;DHT22;9435;52.122;5.502;2022-08-01T05:56:40;17.90;99.90
18611;DHT22;9435;52.122;5.502;2022-08-01T05:59:08;18.00;99.90
18611;DHT22;9435;52.122;5.502;2022-08-01T06:01:35;18.00;99.90
18611;DHT22;9435;52.122;5.502;2022-08-01T06:04:02;18.10;99.90
18611;DHT22;9435;52.122;5.502;2022-08-01T06:06:29;18.20;99.90
18611;DHT22;9435;52.122;5.502;2022-08-01T06:08:56;18.10;99.90
18611;DHT22;9435;52.122;5.502;2022-08-01T06:11:23;18.00;99.90
18611;DHT22;9435;52.122;5.502;2022-08-01T06:13:51;18.10;99.90
18611;DHT22;9435;52.122;5.502;2022-08-01T06:16:19;18.20;99.90
18611;DHT22;9435;52.122;5.502;2022-08-01T06:18:46;18.30;99.90
18611;DHT22;9435;52.122;5.502;2022-08-01T06:21:13;18.30;99.90
18611;DHT22;9435;52.122;5.502;2022-08-01T06:23:41;18.40;99.90
18611;DHT22;9435;52.122;5.502;2022-08-01T06:26:08;18.40;99.90
18611;DHT22;9435;52.122;5.502;2022-08-01T06:28:35;18.50;99.90
18611;DHT22;9435;52.122;5.502;2022-08-01T06:31:04;18.50;99.90
18611;DHT22;9435;52.122;5.502;2022-08-01T06:33:31;18.60;99.90
18611;DHT22;9435;52.122;5.502;2022-08-01T06:35:58;18.60;99.90
18611;DHT22;9435;52.122;5.502;2022-08-01T06:38:26;18.70;99.90
18611;DHT22;9435;52.122;5.502;2022-08-01T06:40:53;18.70;99.90
18611;DHT22;9435;52.122;5.502;2022-08-01T06:43:20;18.70;99.90
18611;DHT22;9435;52.122;5.502;2022-08-01T06:45:47;18.70;99.90
18611;DHT22;9435;52.122;5.502;2022-08-01T06:48:16;18.80;99.90
18611;DHT22;9435;52.122;5.502;2022-08-01T06:50:43;18.70;99.90
18611;DHT22;9435;52.122;5.502;2022-08-01T06:53:10;18.60;99.90
18611;DHT22;9435;52.122;5.502;2022-08-01T06:55:37;18.60;99.90
18611;DHT22;9435;52.122;5.502;2022-08-01T06:58:04;18.50;99.90
18611;DHT22;9435;52.122;5.502;2022-08-01T07:00:31;18.40;99.90
18611;DHT22;9435;52.122;5.502;2022-08-01T07:02:58;18.40;99.90
18611;DHT22;9435;52.122;5.502;2022-08-01T07:05:27;18.40;99.90
18611;DHT22;9435;52.122;5.502;2022-08-01T07:07:56;18.50;99.90
18611;DHT22;9435;52.122;5.502;2022-08-01T07:10:23;18.60;99.90
18611;DHT22;9435;52.122;5.502;2022-08-01T07:12:50;18.60;99.90
18611;DHT22;9435;52.122;5.502;2022-08-01T07:15:17;18.70;99.90
18611;DHT22;9435;52.122;5.502;2022-08-01T07:17:47;18.70;99.90
18611;DHT22;9435;52.122;5.502;2022-08-01T07:20:14;18.80;99.90
18611;DHT22;9435;52.122;5.502;2022-08-01T07:22:43;18.70;99.90
18611;DHT22;9435;52.122;5.502;2022-08-01T07:25:10;18.80;99.90
18611;DHT22;9435;52.122;5.502;2022-08-01T07:27:37;18.80;99.90
18611;DHT22;9435;52.122;5.502;2022-08-01T07:30:05;18.80;99.90
18611;DHT22;9435;52.122;5.502;2022-08-01T07:32:32;18.80;99.90
18611;DHT22;9435;52.122;5.502;2022-08-01T07:35:00;18.80;99.90
18611;DHT22;9435;52.122;5.502;2022-08-01T07:37:27;18.80;99.90
18611;DHT22;9435;52.122;5.502;2022-08-01T07:39:56;18.80;99.90
18611;DHT22;9435;52.122;5.502;2022-08-01T07:42:23;18.90;99.90
18611;DHT22;9435;52.122;5.502;2022-08-01T07:44:50;18.80;99.90
18611;DHT22;9435;52.122;5.502;2022-08-01T07:47:23;18.80;99.90
18611;DHT22;9435;52.122;5.502;2022-08-01T07:49:50;18.80;99.90
18611;DHT22;9435;52.122;5.502;2022-08-01T07:52:17;18.60;99.90
18611;DHT22;9435;52.122;5.502;2022-08-01T07:54:44;18.60;99.90
18611;DHT22;9435;52.122;5.502;2022-08-01T07:57:13;18.50;99.90
18611;DHT22;9435;52.122;5.502;2022-08-01T07:59:40;18.50;99.90
18611;DHT22;9435;52.122;5.502;2022-08-01T08:02:07;18.60;99.90
18611;DHT22;9435;52.122;5.502;2022-08-01T08:04:34;18.60;99.90
18611;DHT22;9435;52.122;5.502;2022-08-01T08:07:01;18.70;99.90
18611;DHT22;9435;52.122;5.502;2022-08-01T08:09:28;18.70;99.90
18611;DHT22;9435;52.122;5.502;2022-08-01T08:11:55;18.70;99.90
18611;DHT22;9435;52.122;5.502;2022-08-01T08:14:23;18.70;99.90
18611;DHT22;9435;52.122;5.502;2022-08-01T08:16:50;18.70;99.90
18611;DHT22;9435;52.122;5.502;2022-08-01T08:19:18;18.60;99.90
18611;DHT22;9435;52.122;5.502;2022-08-01T08:21:45;18.40;99.90
18611;DHT22;9435;52.122;5.502;2022-08-01T08:24:12;18.50;99.90
18611;DHT22;9435;52.122;5.502;2022-08-01T08:26:51;18.40;99.90
18611;DHT22;9435;52.122;5.502;2022-08-01T08:29:18;18.30;99.90
18611;DHT22;9435;52.122;5.502;2022-08-01T08:31:47;18.50;99.90
18611;DHT22;9435;52.122;5.502;2022-08-01T08:34:14;18.70;99.90
18611;DHT22;9435;52.122;5.502;2022-08-01T08:36:41;18.80;99.90
18611;DHT22;9435;52.122;5.502;2022-08-01T08:39:08;18.90;99.90
18611;DHT22;9435;52.122;5.502;2022-08-01T08:41:36;18.90;99.90
18611;DHT22;9435;52.122;5.502;2022-08-01T08:44:03;19.00;99.90
18611;DHT22;9435;52.122;5.502;2022-08-01T08:46:32;19.10;99.90
18611;DHT22;9435;52.122;5.502;2022-08-01T08:49:02;19.10;99.90
18611;DHT22;9435;52.122;5.502;2022-08-01T08:51:30;19.00;99.90
18611;DHT22;9435;52.122;5.502;2022-08-01T08:54:00;18.90;99.90
18611;DHT22;9435;52.122;5.502;2022-08-01T08:56:30;18.80;99.90
18611;DHT22;9435;52.122;5.502;2022-08-01T08:59:00;18.70;99.90
18611;DHT22;9435;52.122;5.502;2022-08-01T09:01:27;18.70;99.90
18611;DHT22;9435;52.122;5.502;2022-08-01T09:03:54;18.80;99.90
18611;DHT22;9435;52.122;5.502;2022-08-01T09:06:23;18.90;99.90
18611;DHT22;9435;52.122;5.502;2022-08-01T09:08:50;18.90;99.90
18611;DHT22;9435;52.122;5.502;2022-08-01T09:11:17;18.80;99.90
18611;DHT22;9435;52.122;5.502;2022-08-01T09:14:02;18.80;99.90
18611;DHT22;9435;52.122;5.502;2022-08-01T09:16:30;18.90;99.90
18611;DHT22;9435;52.122;5.502;2022-08-01T09:19:07;19.00;99.90
18611;DHT22;9435;52.122;5.502;2022-08-01T09:21:37;19.10;99.90
18611;DHT22;9435;52.122;5.502;2022-08-01T09:24:14;19.30;99.90
18611;DHT22;9435;52.122;5.502;2022-08-01T09:26:42;19.40;99.90
18611;DHT22;9435;52.122;5.502;2022-08-01T09:29:19;19.40;99.90
18611;DHT22;9435;52.122;5.502;2022-08-01T09:31:47;19.30;99.90
18611;DHT22;9435;52.122;5.502;2022-08-01T09:34:15;19.40;99.90
18611;DHT22;9435;52.122;5.502;2022-08-01T09:36:52;19.40;99.90
18611;DHT22;9435;52.122;5.502;2022-08-01T09:39:22;19.60;99.90
18611;DHT22;9435;52.122;5.502;2022-08-01T09:41:49;19.60;99.90
18611;DHT22;9435;52.122;5.502;2022-08-01T09:44:17;19.70;99.90
18611;DHT22;9435;52.122;5.502;2022-08-01T09:46:52;19.70;99.90
18611;DHT22;9435;52.122;5.502;2022-08-01T09:49:28;19.70;99.90
18611;DHT22;9435;52.122;5.502;2022-08-01T09:51:57;19.70;99.90
18611;DHT22;9435;52.122;5.502;2022-08-01T09:54:29;19.80;99.90
18611;DHT22;9435;52.122;5.502;2022-08-01T09:57:08;19.70;99.90
18611;DHT22;9435;52.122;5.502;2022-08-01T09:59:36;19.80;99.90
18611;DHT22;9435;52.122;5.502;2022-08-01T10:02:06;19.80;99.90
18611;DHT22;9435;52.122;5.502;2022-08-01T10:04:34;20.00;99.90
18611;DHT22;9435;52.122;5.502;2022-08-01T10:07:07;20.10;99.90
18611;DHT22;9435;52.122;5.502;2022-08-01T10:09:35;20.20;99.90
18611;DHT22;9435;52.122;5.502;2022-08-01T10:12:03;20.20;99.90
18611;DHT22;9435;52.122;5.502;2022-08-01T10:14:30;20.10;99.90
18611;DHT22;9435;52.122;5.502;2022-08-01T10:16:59;20.10;99.90
18611;DHT22;9435;52.122;5.502;2022-08-01T10:19:28;20.20;99.90
18611;DHT22;9435;52.122;5.502;2022-08-01T10:21:56;20.50;99.90
18611;DHT22;9435;52.122;5.502;2022-08-01T10:24:28;20.80;99.90
18611;DHT22;9435;52.122;5.502;2022-08-01T10:26:58;20.80;99.90
18611;DHT22;9435;52.122;5.502;2022-08-01T10:29:34;21.30;99.90
18611;DHT22;9435;52.122;5.502;2022-08-01T10:32:04;21.20;99.90
18611;DHT22;9435;52.122;5.502;2022-08-01T10:34:33;21.40;99.90
18611;DHT22;9435;52.122;5.502;2022-08-01T10:37:01;21.40;99.90
18611;DHT22;9435;52.122;5.502;2022-08-01T10:39:30;21.40;99.90
18611;DHT22;9435;52.122;5.502;2022-08-01T10:41:57;21.60;99.90
18611;DHT22;9435;52.122;5.502;2022-08-01T10:44:27;21.50;99.90
18611;DHT22;9435;52.122;5.502;2022-08-01T10:46:59;21.20;99.90
18611;DHT22;9435;52.122;5.502;2022-08-01T10:49:31;21.10;99.90
18611;DHT22;9435;52.122;5.502;2022-08-01T10:52:02;21.40;99.90
18611;DHT22;9435;52.122;5.502;2022-08-01T10:54:38;21.60;99.90
18611;DHT22;9435;52.122;5.502;2022-08-01T10:57:06;21.70;99.90
18611;DHT22;9435;52.122;5.502;2022-08-01T10:59:33;21.60;99.90
18611;DHT22;9435;52.122;5.502;2022-08-01T11:02:03;21.50;99.90
18611;DHT22;9435;52.122;5.502;2022-08-01T11:04:34;21.40;99.90
18611;DHT22;9435;52.122;5.502;2022-08-01T11:07:08;21.40;99.90
18611;DHT22;9435;52.122;5.502;2022-08-01T11:09:41;21.60;99.90
18611;DHT22;9435;52.122;5.502;2022-08-01T11:12:10;21.90;99.90
18611;DHT22;9435;52.122;5.502;2022-08-01T11:17:42;22.30;99.90
18611;DHT22;9435;52.122;5.502;2022-08-01T11:20:14;22.20;99.90
18611;DHT22;9435;52.122;5.502;2022-08-01T11:26:24;21.70;99.90
18611;DHT22;9435;52.122;5.502;2022-08-01T11:29:11;21.50;99.90
18611;DHT22;9435;52.122;5.502;2022-08-01T11:31:38;21.50;99.90
18611;DHT22;9435;52.122;5.502;2022-08-01T11:34:05;21.60;99.90
18611;DHT22;9435;52.122;5.502;2022-08-01T11:36:32;21.70;99.90
18611;DHT22;9435;52.122;5.502;2022-08-01T11:39:14;21.80;99.90
18611;DHT22;9435;52.122;5.502;2022-08-01T11:41:43;22.00;99.90
18611;DHT22;9435;52.122;5.502;2022-08-01T11:46:56;22.20;99.90
18611;DHT22;9435;52.122;5.502;2022-08-01T11:49:48;22.40;99.90
18611;DHT22;9435;52.122;5.502;2022-08-01T11:52:25;22.50;99.90
18611;DHT22;9435;52.122;5.502;2022-08-01T11:54:54;22.50;99.90
18611;DHT22;9435;52.122;5.502;2022-08-01T11:57:24;22.60;99.90
18611;DHT22;9435;52.122;5.502;2022-08-01T11:59:53;22.70;99.90
18611;DHT22;9435;52.122;5.502;2022-08-01T12:02:22;23.10;99.90
18611;DHT22;9435;52.122;5.502;2022-08-01T12:04:54;23.20;99.90
18611;DHT22;9435;52.122;5.502;2022-08-01T12:07:22;23.30;99.90
18611;DHT22;9435;52.122;5.502;2022-08-01T12:10:00;23.40;99.90
18611;DHT22;9435;52.122;5.502;2022-08-01T12:12:30;23.40;99.90
18611;DHT22;9435;52.122;5.502;2022-08-01T12:14:58;23.90;99.90
18611;DHT22;9435;52.122;5.502;2022-08-01T12:17:33;24.00;99.90
18611;DHT22;9435;52.122;5.502;2022-08-01T12:20:01;23.50;99.90
18611;DHT22;9435;52.122;5.502;2022-08-01T12:22:28;23.80;99.90
18611;DHT22;9435;52.122;5.502;2022-08-01T12:24:55;24.20;99.90
18611;DHT22;9435;52.122;5.502;2022-08-01T12:27:32;24.10;99.90
18611;DHT22;9435;52.122;5.502;2022-08-01T12:29:59;23.60;99.90
18611;DHT22;9435;52.122;5.502;2022-08-01T12:32:28;23.50;99.90
18611;DHT22;9435;52.122;5.502;2022-08-01T12:35:00;23.50;99.90
18611;DHT22;9435;52.122;5.502;2022-08-01T12:37:27;23.40;99.90
18611;DHT22;9435;52.122;5.502;2022-08-01T12:39:56;23.10;99.90
18611;DHT22;9435;52.122;5.502;2022-08-01T12:42:24;23.00;99.90
18611;DHT22;9435;52.122;5.502;2022-08-01T12:44:53;23.00;99.90
18611;DHT22;9435;52.122;5.502;2022-08-01T12:47:21;23.30;99.90
18611;DHT22;9435;52.122;5.502;2022-08-01T12:49:48;23.40;99.90
18611;DHT22;9435;52.122;5.502;2022-08-01T12:52:16;23.50;99.90
18611;DHT22;9435;52.122;5.502;2022-08-01T12:55:08;23.90;99.90
18611;DHT22;9435;52.122;5.502;2022-08-01T12:57:35;23.80;99.90
18611;DHT22;9435;52.122;5.502;2022-08-01T13:00:18;23.80;99.90
18611;DHT22;9435;52.122;5.502;2022-08-01T13:02:47;23.80;99.90
18611;DHT22;9435;52.122;5.502;2022-08-01T13:05:15;23.70;99.90
18611;DHT22;9435;52.122;5.502;2022-08-01T13:07:46;23.60;99.90
18611;DHT22;9435;52.122;5.502;2022-08-01T13:10:15;23.90;99.90
18611;DHT22;9435;52.122;5.502;2022-08-01T13:12:52;23.90;99.90
18611;DHT22;9435;52.122;5.502;2022-08-01T13:15:23;23.60;99.90
18611;DHT22;9435;52.122;5.502;2022-08-01T13:17:51;23.30;99.90
18611;DHT22;9435;52.122;5.502;2022-08-01T13:20:24;23.60;99.90
18611;DHT22;9435;52.122;5.502;2022-08-01T13:22:51;23.60;99.90
18611;DHT22;9435;52.122;5.502;2022-08-01T13:25:18;23.30;99.90
18611;DHT22;9435;52.122;5.502;2022-08-01T13:27:45;23.30;99.90
18611;DHT22;9435;52.122;5.502;2022-08-01T13:30:13;23.40;99.90
18611;DHT22;9435;52.122;5.502;2022-08-01T13:32:42;23.30;99.90
18611;DHT22;9435;52.122;5.502;2022-08-01T13:35:11;23.20;99.90
18611;DHT22;9435;52.122;5.502;2022-08-01T13:37:40;23.30;99.90
18611;DHT22;9435;52.122;5.502;2022-08-01T13:40:09;23.20;99.90
18611;DHT22;9435;52.122;5.502;2022-08-01T13:42:37;23.40;99.90
18611;DHT22;9435;52.122;5.502;2022-08-01T13:45:06;23.40;99.90
18611;DHT22;9435;52.122;5.502;2022-08-01T13:47:36;23.40;99.90
18611;DHT22;9435;52.122;5.502;2022-08-01T13:50:06;23.50;99.90
18611;DHT22;9435;52.122;5.502;2022-08-01T13:52:33;23.80;99.90
18611;DHT22;9435;52.122;5.502;2022-08-01T13:55:00;23.50;99.90
18611;DHT22;9435;52.122;5.502;2022-08-01T13:57:28;23.40;99.90
18611;DHT22;9435;52.122;5.502;2022-08-01T13:59:55;23.40;99.90
18611;DHT22;9435;52.122;5.502;2022-08-01T14:02:25;23.20;99.90
18611;DHT22;9435;52.122;5.502;2022-08-01T14:04:52;23.10;99.90
18611;DHT22;9435;52.122;5.502;2022-08-01T14:07:21;23.40;99.90
18611;DHT22;9435;52.122;5.502;2022-08-01T14:09:48;23.50;99.90
18611;DHT22;9435;52.122;5.502;2022-08-01T14:12:15;23.50;99.90
18611;DHT22;9435;52.122;5.502;2022-08-01T14:14:42;23.70;99.90
18611;DHT22;9435;52.122;5.502;2022-08-01T14:17:09;23.40;99.90
18611;DHT22;9435;52.122;5.502;2022-08-01T14:19:36;23.30;99.90
18611;DHT22;9435;52.122;5.502;2022-08-01T14:22:03;23.30;99.90
18611;DHT22;9435;52.122;5.502;2022-08-01T14:24:32;23.50;99.90
18611;DHT22;9435;52.122;5.502;2022-08-01T14:26:59;23.40;99.90
18611;DHT22;9435;52.122;5.502;2022-08-01T14:29:27;23.40;99.90
18611;DHT22;9435;52.122;5.502;2022-08-01T14:31:54;23.20;99.90
18611;DHT22;9435;52.122;5.502;2022-08-01T14:34:21;23.20;99.90
18611;DHT22;9435;52.122;5.502;2022-08-01T14:36:48;23.30;99.90
18611;DHT22;9435;52.122;5.502;2022-08-01T14:39:15;23.00;99.90
18611;DHT22;9435;52.122;5.502;2022-08-01T14:41:44;22.80;99.90
18611;DHT22;9435;52.122;5.502;2022-08-01T14:44:11;22.70;99.90
18611;DHT22;9435;52.122;5.502;2022-08-01T14:46:37;22.80;99.90
18611;DHT22;9435;52.122;5.502;2022-08-01T14:49:05;22.60;99.90
18611;DHT22;9435;52.122;5.502;2022-08-01T14:51:32;22.70;99.90
18611;DHT22;9435;52.122;5.502;2022-08-01T14:54:00;23.00;99.90
18611;DHT22;9435;52.122;5.502;2022-08-01T14:56:27;23.00;99.90
18611;DHT22;9435;52.122;5.502;2022-08-01T14:58:55;23.10;99.90
18611;DHT22;9435;52.122;5.502;2022-08-01T15:01:22;23.00;99.90
18611;DHT22;9435;52.122;5.502;2022-08-01T15:03:49;22.90;99.90
18611;DHT22;9435;52.122;5.502;2022-08-01T15:06:16;23.10;99.90
18611;DHT22;9435;52.122;5.502;2022-08-01T15:08:43;23.10;99.90
18611;DHT22;9435;52.122;5.502;2022-08-01T15:11:10;22.90;99.90
18611;DHT22;9435;52.122;5.502;2022-08-01T15:13:38;22.70;99.90
18611;DHT22;9435;52.122;5.502;2022-08-01T15:16:06;22.70;99.90
18611;DHT22;9435;52.122;5.502;2022-08-01T15:18:33;22.80;99.90
18611;DHT22;9435;52.122;5.502;2022-08-01T15:21:00;22.70;99.90
18611;DHT22;9435;52.122;5.502;2022-08-01T15:23:27;22.60;99.90
18611;DHT22;9435;52.122;5.502;2022-08-01T15:25:55;22.70;99.90
18611;DHT22;9435;52.122;5.502;2022-08-01T15:28:22;22.70;99.90
18611;DHT22;9435;52.122;5.502;2022-08-01T15:30:49;22.60;99.90
18611;DHT22;9435;52.122;5.502;2022-08-01T15:33:17;22.60;99.90
18611;DHT22;9435;52.122;5.502;2022-08-01T15:35:46;22.50;99.90
18611;DHT22;9435;52.122;5.502;2022-08-01T15:38:13;22.60;99.90
18611;DHT22;9435;52.122;5.502;2022-08-01T15:40:40;22.70;99.90
18611;DHT22;9435;52.122;5.502;2022-08-01T15:43:07;22.80;99.90
18611;DHT22;9435;52.122;5.502;2022-08-01T15:45:34;22.80;99.90
18611;DHT22;9435;52.122;5.502;2022-08-01T15:48:01;22.50;99.90
18611;DHT22;9435;52.122;5.502;2022-08-01T15:50:30;22.50;99.90
18611;DHT22;9435;52.122;5.502;2022-08-01T15:52:57;22.60;99.90
18611;DHT22;9435;52.122;5.502;2022-08-01T15:55:24;22.40;99.90
18611;DHT22;9435;52.122;5.502;2022-08-01T15:57:53;22.50;99.90
18611;DHT22;9435;52.122;5.502;2022-08-01T16:00:20;22.30;99.90
18611;DHT22;9435;52.122;5.502;2022-08-01T16:02:47;22.40;99.90
18611;DHT22;9435;52.122;5.502;2022-08-01T16:05:17;22.20;99.90